LIMCLFMN

Guest
Details From LIMC - Milano Malpensa
To LFMN - Nice Cote D Azur
Flight Number -
Tags Generated
Created
Modified
Stats Distance 137 nm / 253 km
Max Altitude 0 ft / 0 m
Waypoints 2
Social Downloads 1
Likes 0
Share VATSIM

Download

Looking for another format? Having issues loading an existing format? Contact us
Advertisement - Login to hide

Notes

Generated

Route

LIMC LFMN

ID Type Via Altitude Latitude Longitude Leg Dist Tot Dist Heading (true) Name
O LIMC APT - 0 ft / 0 m 45.65044˚ 8.72841˚ - 0 nm - -
O LFMN APT - 0 ft / 0 m 43.64661˚ 7.20258˚ 136 nm 136 nm 209° / 208° -

Altitude Profile

Advertisement - Login to hide

LIMC

Details ICAO LIMC (MXP)
Name Milano Malpensa
Region Italy
Timezone Europe/Rome (UTC+2.0)
Stats Elevation 767 ft / 234 m (AMSL)
Location 45.630606° 8.728111°
Runways 2
Magnetic Variation 2.429° E

METAR

LIMC 250850Z 07003KT 330V140 CAVOK 24/13 Q1016 NOSIG

Decode

TAF

TAF LIMC 250500Z 2506/2612 VRB05KT CAVOK

Decode

Departure Runways

ID Width Length Bearing (true) Bearing (mag) Surface Threshold Offset Overrun Length
17L 197 ft / 60 m 12,869 ft / 3,923 m 169.62° 167.19° Asphalt 3,094 ft / 943 m 0 ft / 0 m
17R 197 ft / 60 m 12,869 ft / 3,923 m 169.62° 167.19° Asphalt 0 ft / 0 m 0 ft / 0 m
35L 197 ft / 60 m 12,869 ft / 3,923 m 349.62° 347.19° Asphalt 1,329 ft / 405 m 0 ft / 0 m
35R 197 ft / 60 m 12,869 ft / 3,923 m 349.62° 347.19° Asphalt 0 ft / 0 m 0 ft / 0 m

LFMN

Details ICAO LFMN (NCE)
Name Nice/Cote d'Azur
Region France
Timezone Unknown (UTC+0.0)
Stats Elevation 12 ft / 4 m (AMSL)
Location 43.657981° 7.215362°
Runways 2
Magnetic Variation 2.066° E

METAR

LFMN 250900Z 13005KT 9999 FEW017 21/17 Q1016 NOSIG

Decode

TAF

TAF LFMN 250800Z 2509/2615 16010KT 9999 FEW012 BECMG 2518/2520 33010KT PROB30 TEMPO 2600/2607 BKN012 BECMG 2607/2609 14006KT BECMG 2609/2610 BKN250

Decode

Destination Runways

ID Width Length Bearing (true) Bearing (mag) Surface Threshold Offset Overrun Length
04L 148 ft / 45 m 8,427 ft / 2,569 m 44.85° 42.78° Asphalt 0 ft / 0 m 131 ft / 40 m
04R 148 ft / 45 m 9,720 ft / 2,963 m 44.60° 42.53° Asphalt 0 ft / 0 m 427 ft / 130 m
22L 148 ft / 45 m 9,720 ft / 2,963 m 224.62° 222.55° Asphalt 0 ft / 0 m 525 ft / 160 m
22R 148 ft / 45 m 8,427 ft / 2,569 m 224.87° 222.80° Asphalt 0 ft / 0 m 492 ft / 150 m

Approach Navaids

Runway Type Ident Frequency Range Bearing (true) Bearing (mag) Slope Elevation
04L Localiser NI 109.95 MHz 27 nm / 50 km 44.90° 42.83° - 12 ft / 4 m (AMSL)
04L Glidescope NI 109.95 MHz 27 nm / 50 km 44.90° 42.83° 3.00° 12 ft / 4 m (AMSL)
04L DME NI 109.95 MHz 27 nm / 50 km - - - 12 ft / 4 m (AMSL)
04R Localiser NA 110.70 MHz 27 nm / 50 km 42.00° 39.93° - 12 ft / 4 m (AMSL)
04R Glidescope NA 110.70 MHz 27 nm / 50 km 42.00° 39.93° 3.00° 12 ft / 4 m (AMSL)
04R DME NA 110.70 MHz 27 nm / 50 km - - - 12 ft / 4 m (AMSL)

Popular Alternatives